createdAt,value
2022-08-22T00:00:56.968Z,12.15
2022-08-22T00:02:46.391Z,8.52
2022-08-22T00:02:48.774Z,8.77
2022-08-22T00:03:03.386Z,9.18
2022-08-22T00:04:15.214Z,11.77
2022-08-22T00:07:12.902Z,11.88
2022-08-22T00:10:25.880Z,12.35
2022-08-22T00:13:13.439Z,13.18
2022-08-22T00:16:03.119Z,12.65
2022-08-22T00:18:44.629Z,12.65
2022-08-22T00:21:43.355Z,12.23
2022-08-22T00:24:24.798Z,12.77
2022-08-22T00:27:07.645Z,12.07
2022-08-22T00:29:49.272Z,12.57
2022-08-22T00:32:40.483Z,11.43
2022-08-22T00:35:19.844Z,11.55
2022-08-22T00:38:07.284Z,12.35
2022-08-22T00:40:48.677Z,12.43
2022-08-22T00:43:49.775Z,13.02
2022-08-22T00:46:23.326Z,13.27
2022-08-22T00:49:15.725Z,12.75
2022-08-22T00:52:02.646Z,12.93
2022-08-22T00:54:56.273Z,12.82
2022-08-22T00:57:46.015Z,12.43
2022-08-22T01:00:34.357Z,12.88
2022-08-22T01:03:29.255Z,12.73
2022-08-22T01:06:12.497Z,13.20
2022-08-22T01:09:09.974Z,12.40
2022-08-22T01:11:58.865Z,13.10
2022-08-22T01:14:37.405Z,13.05
2022-08-22T01:17:29.866Z,13.55
2022-08-22T01:20:10.721Z,14.00
2022-08-22T01:23:08.412Z,13.32
2022-08-22T01:26:13.523Z,13.52
2022-08-22T01:28:56.341Z,12.80
2022-08-22T01:31:36.416Z,13.15
2022-08-22T01:34:30.320Z,13.23
2022-08-22T01:37:20.010Z,12.52
2022-08-22T01:40:20.827Z,12.98
2022-08-22T01:43:59.310Z,13.15
2022-08-22T01:46:28.727Z,12.48
2022-08-22T01:49:25.589Z,14.07
2022-08-22T01:52:19.757Z,13.15
2022-08-22T01:54:56.300Z,13.20
2022-08-22T01:57:25.212Z,12.25
2022-08-22T01:59:55.779Z,13.10
2022-08-22T02:02:41.927Z,13.13
2022-08-22T02:05:32.032Z,13.38
2022-08-22T02:08:03.119Z,13.32
2022-08-22T02:13:41.257Z,12.38
2022-08-22T02:16:20.167Z,12.20
2022-08-22T02:18:57.852Z,12.73
2022-08-22T02:21:51.718Z,12.73
2022-08-22T02:24:22.596Z,13.32
2022-08-22T02:27:10.382Z,13.48
2022-08-22T02:29:53.601Z,13.48
2022-08-22T02:32:46.782Z,13.15
2022-08-22T02:41:52.858Z,13.77
2022-08-22T02:45:08.658Z,13.57
2022-08-22T02:48:20.642Z,13.43
2022-08-22T02:51:05.895Z,14.00
2022-08-22T02:57:11.379Z,13.68
2022-08-22T03:00:30.749Z,12.55
2022-08-22T03:03:07.272Z,13.00
2022-08-22T03:05:38.488Z,13.07
2022-08-22T03:10:46.144Z,12.95
2022-08-22T03:13:36.523Z,12.85
2022-08-22T03:16:13.513Z,13.40
2022-08-22T03:19:03.575Z,12.57
2022-08-22T03:21:41.791Z,13.73
2022-08-22T03:24:26.928Z,12.75
2022-08-22T03:27:32.691Z,12.98
2022-08-22T03:30:17.285Z,13.32
2022-08-22T03:32:50.861Z,12.32
2022-08-22T03:35:39.238Z,13.13
2022-08-22T03:51:04.498Z,13.45
2022-08-22T03:53:51.544Z,12.88
2022-08-22T03:59:44.002Z,12.60
2022-08-22T04:02:43.620Z,12.98
2022-08-22T04:06:11.501Z,13.00
2022-08-22T04:09:10.478Z,13.70
2022-08-22T04:11:57.053Z,13.10
2022-08-22T04:15:02.485Z,13.65
2022-08-22T04:18:09.200Z,13.07
2022-08-22T04:20:49.609Z,13.48
2022-08-22T04:23:44.969Z,12.13
2022-08-22T04:26:29.922Z,13.85
2022-08-22T04:29:14.808Z,14.68
2022-08-22T04:31:51.452Z,13.48
2022-08-22T04:34:39.560Z,13.55
2022-08-22T04:40:29.595Z,13.00
2022-08-22T04:43:09.542Z,14.15
2022-08-22T04:45:57.510Z,13.73
2022-08-22T04:48:28.454Z,13.80
2022-08-22T04:53:55.988Z,12.93
2022-08-22T04:56:57.414Z,14.88
2022-08-22T04:59:33.496Z,14.18
2022-08-22T05:02:08.435Z,14.40
2022-08-22T05:07:58.956Z,14.32
2022-08-22T05:10:48.399Z,14.75
2022-08-22T05:13:29.379Z,13.43
2022-08-22T05:16:06.497Z,14.52
2022-08-22T05:18:43.631Z,14.85
2022-08-22T05:21:17.122Z,12.95
2022-08-22T05:24:31.037Z,13.93
2022-08-22T05:27:09.936Z,14.18
2022-08-22T05:29:44.041Z,12.63
2022-08-22T05:32:26.496Z,13.02
2022-08-22T05:35:02.497Z,12.98
2022-08-22T05:37:49.709Z,12.88
2022-08-22T05:40:25.281Z,13.02
2022-08-22T05:42:57.032Z,13.00
2022-08-22T05:48:45.219Z,12.90
2022-08-22T05:51:30.421Z,12.10
2022-08-22T05:54:12.462Z,11.90
2022-08-22T05:56:46.933Z,13.02
2022-08-22T05:59:23.591Z,12.10
2022-08-22T06:02:18.865Z,11.40
2022-08-22T06:04:47.371Z,11.27
2022-08-22T06:07:28.564Z,10.73
2022-08-22T06:10:26.213Z,11.77
2022-08-22T06:16:16.519Z,12.68
2022-08-22T06:18:54.941Z,16.35
2022-08-22T06:21:37.660Z,15.52
2022-08-22T06:24:13.820Z,10.43
2022-08-22T06:26:48.604Z,11.25
2022-08-22T06:29:38.436Z,10.93
2022-08-22T06:32:59.388Z,11.07
2022-08-22T06:35:20.165Z,10.48
2022-08-22T06:37:51.016Z,10.10
2022-08-22T06:40:19.427Z,11.30
2022-08-22T06:42:51.285Z,10.38
2022-08-22T06:45:24.169Z,10.93
2022-08-22T06:48:49.483Z,10.82
2022-08-22T06:51:22.281Z,9.55
2022-08-22T06:53:57.081Z,9.65
2022-08-22T06:57:16.124Z,9.85
2022-08-22T06:59:49.423Z,9.75
2022-08-22T07:02:55.223Z,9.68
2022-08-22T07:05:28.614Z,8.85
2022-08-22T07:07:57.812Z,10.40
2022-08-22T07:10:29.055Z,9.02
2022-08-22T07:12:57.856Z,9.70
2022-08-22T07:15:40.100Z,8.40
2022-08-22T07:18:19.686Z,10.10
2022-08-22T07:21:05.324Z,8.90
2022-08-22T07:23:42.636Z,8.80
2022-08-22T07:26:23.965Z,11.95
2022-08-22T07:29:10.706Z,9.48
2022-08-22T07:35:23.097Z,9.45
2022-08-22T07:38:03.951Z,23.65
2022-08-22T07:41:24.536Z,23.63
2022-08-22T07:44:46.585Z,10.18
2022-08-22T07:47:21.859Z,9.10
2022-08-22T07:50:00.283Z,8.93
2022-08-22T07:52:39.119Z,9.60
2022-08-22T07:55:20.328Z,9.98
2022-08-22T07:57:55.627Z,9.73
2022-08-22T08:00:24.983Z,8.73
2022-08-22T08:03:06.972Z,9.25
2022-08-22T08:05:37.596Z,9.73
2022-08-22T08:08:18.257Z,9.13
2022-08-22T08:10:51.446Z,10.77
2022-08-22T08:13:34.845Z,8.63
2022-08-22T08:16:11.109Z,8.30
2022-08-22T08:19:04.735Z,8.85
2022-08-22T08:21:39.600Z,8.63
2022-08-22T08:24:13.701Z,8.25
2022-08-22T08:27:14.113Z,8.65
2022-08-22T08:30:06.748Z,9.43
2022-08-22T08:32:38.594Z,9.25
2022-08-22T08:35:15.552Z,9.40
2022-08-22T08:37:57.082Z,8.75
2022-08-22T08:40:56.831Z,14.20
2022-08-22T08:43:38.579Z,9.60
2022-08-22T08:46:19.150Z,14.82
2022-08-22T08:49:15.010Z,9.10
2022-08-22T08:51:59.161Z,7.90
2022-08-22T08:54:47.248Z,8.30
2022-08-22T08:57:24.960Z,8.50
2022-08-22T09:00:32.306Z,8.48
2022-08-22T09:03:24.056Z,9.05
2022-08-22T09:06:52.863Z,8.82
2022-08-22T09:10:02.463Z,8.50
2022-08-22T09:13:11.794Z,8.60
2022-08-22T09:16:04.851Z,10.88
2022-08-22T09:19:29.249Z,7.55
2022-08-22T09:22:00.177Z,7.97
2022-08-22T09:24:34.296Z,8.80
2022-08-22T09:27:12.479Z,8.13
2022-08-22T09:29:59.821Z,8.57
2022-08-22T09:33:02.702Z,8.48
2022-08-22T09:35:52.152Z,11.20
2022-08-22T09:38:50.688Z,8.95
2022-08-22T09:41:35.311Z,7.93
2022-08-22T09:44:22.557Z,7.93
2022-08-22T09:47:06.808Z,8.35
2022-08-22T09:50:04.571Z,7.82
2022-08-22T09:53:06.196Z,7.38
2022-08-22T09:55:45.402Z,7.93
2022-08-22T09:58:48.241Z,8.07
2022-08-22T10:01:32.956Z,8.55
2022-08-22T10:04:07.784Z,7.93
2022-08-22T10:07:12.196Z,7.25
2022-08-22T10:10:21.654Z,7.45
2022-08-22T10:13:00.459Z,8.80
2022-08-22T10:15:41.008Z,7.60
2022-08-22T10:18:30.626Z,7.78
2022-08-22T10:21:31.058Z,7.25
2022-08-22T10:24:56.086Z,7.75
2022-08-22T10:28:01.441Z,7.57
2022-08-22T10:30:42.239Z,8.60
2022-08-22T10:33:23.582Z,7.63
2022-08-22T10:36:01.048Z,9.68
2022-08-22T10:38:46.540Z,10.05
2022-08-22T10:41:27.347Z,9.60
2022-08-22T10:44:04.467Z,8.27
2022-08-22T10:46:42.147Z,9.88
2022-08-22T10:49:40.751Z,10.25
2022-08-22T10:52:15.550Z,9.40
2022-08-22T10:54:53.521Z,8.02
2022-08-22T10:57:31.109Z,7.97
2022-08-22T11:00:13.337Z,8.60
2022-08-22T11:02:53.953Z,8.15
2022-08-22T11:05:50.038Z,7.97
2022-08-22T11:08:19.374Z,7.68
2022-08-22T11:11:17.629Z,14.50
2022-08-22T11:13:49.714Z,8.38
2022-08-22T11:16:24.111Z,7.93
2022-08-22T11:19:23.141Z,7.90
2022-08-22T11:22:04.190Z,8.98
2022-08-22T11:25:11.340Z,8.50
2022-08-22T11:27:51.043Z,9.63
2022-08-22T11:30:44.246Z,8.33
2022-08-22T11:33:46.161Z,8.63
2022-08-22T11:36:46.517Z,9.10
2022-08-22T11:39:33.714Z,8.57
2022-08-22T11:42:14.665Z,8.43
2022-08-22T11:45:01.715Z,8.48
2022-08-22T11:47:36.285Z,7.95
2022-08-22T11:50:15.098Z,8.43
2022-08-22T11:52:58.034Z,8.25
2022-08-22T11:55:43.790Z,9.82
2022-08-22T11:58:28.776Z,8.50
2022-08-22T12:01:13.052Z,10.27
2022-08-22T12:04:21.182Z,8.63
2022-08-22T12:07:14.155Z,9.02
2022-08-22T12:10:20.926Z,8.80
2022-08-22T12:12:56.745Z,8.70
2022-08-22T12:15:48.991Z,8.10
2022-08-22T12:18:42.245Z,8.75
2022-08-22T12:21:38.472Z,8.82
2022-08-22T12:24:19.243Z,8.30
2022-08-22T12:27:11.688Z,8.98
2022-08-22T12:30:01.476Z,8.23
2022-08-22T12:33:15.494Z,9.10
2022-08-22T12:36:04.870Z,8.43
2022-08-22T12:38:49.245Z,8.43
2022-08-22T12:41:48.477Z,9.80
2022-08-22T12:44:37.815Z,9.10
2022-08-22T12:47:42.270Z,8.35
2022-08-22T12:50:33.686Z,9.02
2022-08-22T12:53:26.149Z,9.60
2022-08-22T12:56:21.788Z,8.43
2022-08-22T12:59:37.418Z,9.20
2022-08-22T13:02:40.226Z,9.15
2022-08-22T13:05:19.953Z,9.10
2022-08-22T13:08:07.414Z,9.38
2022-08-22T13:10:55.504Z,8.68
2022-08-22T13:13:38.616Z,8.73
2022-08-22T13:16:11.737Z,8.05
2022-08-22T13:18:46.090Z,8.13
2022-08-22T13:21:22.252Z,8.60
2022-08-22T13:23:57.192Z,9.30
2022-08-22T13:26:34.407Z,9.07
2022-08-22T13:29:39.425Z,10.55
2022-08-22T13:32:26.356Z,9.02
2022-08-22T13:35:00.908Z,8.38
2022-08-22T13:37:55.135Z,7.78
2022-08-22T13:40:30.390Z,8.07
2022-08-22T13:46:26.124Z,7.97
2022-08-22T13:49:01.143Z,9.20
2022-08-22T13:51:36.135Z,9.88
2022-08-22T13:54:40.559Z,8.75
2022-08-22T13:57:32.068Z,7.72
2022-08-22T14:00:29.382Z,9.93
2022-08-22T14:03:11.078Z,8.75
2022-08-22T14:05:47.479Z,8.65
2022-08-22T14:08:33.690Z,9.27
2022-08-22T14:11:27.622Z,8.75
2022-08-22T14:14:01.342Z,8.18
2022-08-22T14:16:38.867Z,8.75
2022-08-22T14:19:19.092Z,8.23
2022-08-22T14:24:55.664Z,7.60
2022-08-22T14:31:01.906Z,8.50
2022-08-22T14:33:40.862Z,7.80
2022-08-22T14:36:33.046Z,8.65
2022-08-22T14:39:31.187Z,9.00
2022-08-22T14:42:19.422Z,8.48
2022-08-22T14:45:13.820Z,8.45
2022-08-22T14:48:31.465Z,9.23
2022-08-22T14:51:04.486Z,9.40
2022-08-22T14:53:40.283Z,9.75
2022-08-22T14:56:22.551Z,8.60
2022-08-22T14:59:12.430Z,9.07
2022-08-22T15:01:58.800Z,9.13
2022-08-22T15:04:45.662Z,9.55
2022-08-22T15:07:37.564Z,9.88
2022-08-22T15:10:34.422Z,9.75
2022-08-22T15:13:10.966Z,9.25
2022-08-22T15:19:42.953Z,8.77
2022-08-22T15:22:19.505Z,9.55
2022-08-22T15:28:14.225Z,9.63
2022-08-22T15:31:03.522Z,9.38
2022-08-22T15:33:43.488Z,9.90
2022-08-22T15:36:18.197Z,9.32
2022-08-22T15:38:53.430Z,9.45
2022-08-22T15:41:45.805Z,9.45
2022-08-22T15:44:31.018Z,9.15
2022-08-22T15:47:34.939Z,10.02
2022-08-22T15:50:14.653Z,9.23
2022-08-22T15:53:15.544Z,9.85
2022-08-22T15:56:05.282Z,9.20
2022-08-22T15:58:48.845Z,10.10
2022-08-22T16:01:31.934Z,9.27
2022-08-22T16:04:01.525Z,9.07
2022-08-22T16:06:55.382Z,8.82
2022-08-22T16:09:49.243Z,9.40
2022-08-22T16:12:41.193Z,9.23
2022-08-22T16:15:56.343Z,9.68
2022-08-22T16:18:37.550Z,9.10
2022-08-22T16:21:17.743Z,9.02
2022-08-22T16:23:51.450Z,9.30
2022-08-22T16:26:20.741Z,9.68
2022-08-22T16:29:17.491Z,9.00
2022-08-22T16:31:47.898Z,9.02
2022-08-22T16:34:16.038Z,8.93
2022-08-22T16:37:08.672Z,9.23
2022-08-22T16:39:36.680Z,9.82
2022-08-22T16:42:16.547Z,9.57
2022-08-22T16:44:54.903Z,9.40
2022-08-22T16:47:32.776Z,9.40
2022-08-22T16:50:18.757Z,10.05
2022-08-22T16:53:11.100Z,10.10
2022-08-22T16:55:40.567Z,9.10
2022-08-22T16:58:56.534Z,10.20
2022-08-22T17:02:07.100Z,9.10
2022-08-22T17:04:45.671Z,8.93
2022-08-22T17:07:35.023Z,9.68
2022-08-22T17:10:30.737Z,9.25
2022-08-22T17:13:28.490Z,9.00
2022-08-22T17:16:14.192Z,9.15
2022-08-22T17:19:10.131Z,9.77
2022-08-22T17:21:51.754Z,9.15
2022-08-22T17:24:33.503Z,10.43
2022-08-22T17:27:32.221Z,11.18
2022-08-22T17:30:09.716Z,10.23
2022-08-22T17:33:00.986Z,9.75
2022-08-22T17:35:55.227Z,9.98
2022-08-22T17:38:53.545Z,10.43
2022-08-22T17:41:58.251Z,10.35
2022-08-22T17:44:50.924Z,10.63
2022-08-22T17:47:23.896Z,9.90
2022-08-22T17:50:01.473Z,10.43
2022-08-22T17:52:45.094Z,9.52
2022-08-22T17:55:27.484Z,10.88
2022-08-22T17:58:12.078Z,10.27
2022-08-22T18:01:52.779Z,10.40
2022-08-22T18:04:47.521Z,10.52
2022-08-22T18:07:27.313Z,10.18
2022-08-22T18:13:29.722Z,10.43
2022-08-22T18:16:27.134Z,11.00
2022-08-22T18:19:20.888Z,10.35
2022-08-22T18:24:49.501Z,11.00
2022-08-22T18:27:46.741Z,11.05
2022-08-22T18:30:22.371Z,10.23
2022-08-22T18:33:15.999Z,11.48
2022-08-22T18:35:59.549Z,11.75
2022-08-22T18:38:56.180Z,12.95
2022-08-22T18:41:39.347Z,12.18
2022-08-22T18:44:22.820Z,11.40
2022-08-22T18:46:54.801Z,12.45
2022-08-22T18:49:22.888Z,11.07
2022-08-22T18:52:22.525Z,12.15
2022-08-22T18:55:27.952Z,12.23
2022-08-22T19:02:26.146Z,11.95
2022-08-22T19:08:09.987Z,11.70
2022-08-22T19:10:54.527Z,12.75
2022-08-22T19:13:34.634Z,13.40
2022-08-22T19:16:27.169Z,12.02
2022-08-22T19:19:01.756Z,12.48
2022-08-22T19:21:54.012Z,12.45
2022-08-22T19:24:27.856Z,12.70
2022-08-22T19:27:10.739Z,11.35
2022-08-22T19:29:38.554Z,12.55
2022-08-22T19:32:12.916Z,12.30
2022-08-22T19:34:46.942Z,12.60
2022-08-22T19:37:33.722Z,12.38
2022-08-22T19:40:10.474Z,13.45
2022-08-22T19:42:43.293Z,12.85
2022-08-22T19:45:20.121Z,12.75
2022-08-22T19:47:59.604Z,12.63
2022-08-22T19:50:35.760Z,13.05
2022-08-22T19:59:51.129Z,12.48
2022-08-22T20:02:26.371Z,12.90
2022-08-22T20:05:11.921Z,13.43
2022-08-22T20:08:21.957Z,12.50
2022-08-22T20:11:08.495Z,12.43
2022-08-22T20:13:38.455Z,13.60
2022-08-22T20:16:24.680Z,12.50
2022-08-22T20:19:24.678Z,13.23
2022-08-22T20:22:11.818Z,12.38
2022-08-22T20:24:51.815Z,13.38
2022-08-22T20:40:56.991Z,14.50
2022-08-22T20:43:45.547Z,13.68
2022-08-22T20:46:37.244Z,14.35
2022-08-22T20:49:08.009Z,13.85
2022-08-22T20:55:13.940Z,14.43
2022-08-22T20:58:22.675Z,15.73
2022-08-22T21:00:57.492Z,14.23
2022-08-22T21:03:48.082Z,15.95
2022-08-22T21:06:43.561Z,16.70
2022-08-22T21:13:22.163Z,15.65
2022-08-22T21:15:58.198Z,15.13
2022-08-22T21:19:16.879Z,14.48
2022-08-22T21:21:45.082Z,15.35
2022-08-22T21:24:13.638Z,14.07
2022-08-22T21:27:02.837Z,15.02
2022-08-22T21:29:44.011Z,15.25
2022-08-22T21:32:26.557Z,14.02
2022-08-22T21:34:58.337Z,15.02
2022-08-22T21:37:46.820Z,14.93
2022-08-22T21:40:32.949Z,15.70
2022-08-22T21:43:08.685Z,14.75
2022-08-22T21:45:40.507Z,17.30
2022-08-22T21:48:35.575Z,14.77
2022-08-22T21:51:23.442Z,16.05
2022-08-22T21:53:56.075Z,14.95
2022-08-22T21:56:42.028Z,14.88
2022-08-22T21:59:59.500Z,15.60
2022-08-22T22:02:39.624Z,13.82
2022-08-22T22:05:08.526Z,14.63
2022-08-22T22:07:47.975Z,14.23
2022-08-22T22:13:51.485Z,15.70
2022-08-22T22:16:30.197Z,15.10
2022-08-22T22:19:01.099Z,14.90
2022-08-22T22:24:26.755Z,14.40
2022-08-22T22:26:57.429Z,14.57
2022-08-22T22:31:56.030Z,15.00
2022-08-22T22:34:26.206Z,14.65
2022-08-22T22:36:57.567Z,16.20
2022-08-22T22:39:26.016Z,15.18
2022-08-22T22:41:53.974Z,15.95
2022-08-22T22:44:22.318Z,16.50
2022-08-22T22:46:50.367Z,14.98
2022-08-22T22:49:20.146Z,15.32
2022-08-22T22:51:49.614Z,14.60
2022-08-22T22:54:18.137Z,16.98
2022-08-22T22:56:47.942Z,17.77
2022-08-22T22:59:16.377Z,15.73
2022-08-22T23:02:02.732Z,15.50
2022-08-22T23:04:36.609Z,16.25
2022-08-22T23:07:07.517Z,15.60
2022-08-22T23:12:15.075Z,14.90
2022-08-22T23:14:43.368Z,18.70
2022-08-22T23:17:11.920Z,15.60
2022-08-22T23:19:44.206Z,16.33
2022-08-22T23:22:16.342Z,16.08
2022-08-22T23:24:44.694Z,17.02
2022-08-22T23:27:13.719Z,16.00
2022-08-22T23:29:43.658Z,15.00
2022-08-22T23:32:13.912Z,15.32
2022-08-22T23:34:46.285Z,14.00
2022-08-22T23:40:24.092Z,15.85
2022-08-22T23:42:53.527Z,15.32
2022-08-22T23:45:21.765Z,15.50
2022-08-22T23:47:50.040Z,14.82
2022-08-22T23:50:18.417Z,15.05
2022-08-22T23:52:47.656Z,15.70
2022-08-22T23:55:15.862Z,15.57
2022-08-22T23:57:44.004Z,15.57
